Aérodrome :
LOGIN :

S'inscrire | Disclaimer

   EN    FR    IT 

 










Légende :    VFR   VFR Marginal   IFR   IFR Intensif   IFR Très Intensif
Visi : 
Plafond : 
>= 8 km
>= 3000ft
5 à 8 km
1000 à 3000 ft
1500m à 5 km
500 à 1000 ft
800 à 1500m
200 à 500 ft
< 800m
< 200 ft
Symboles :   Orages  Brouillard  Fortes neiges  Fortes précipitations  Vent > 20 kt
SIGMETs :   Divers  Orages  Givrage  Turbulence  Onde Orograph.  Cendres Volcan.






- Altitude de l'aérodrome : 257 ft
- Code IATA : MAN


EGCC - Manchester

DERNIER METAR :
  • 231920Z AUTO 30005KT 9999 OVC012 14/11 Q1024 TEMPO BKN008

METARs EXPIRÉS :
  • 231850Z AUTO 29005KT 9999 BKN013 OVC018 14/11 Q1024 TEMPO SCT013 BKN018
  • 231820Z AUTO 30006KT 9999 BKN016 OVC042 14/11 Q1024
  • 231750Z AUTO 29007KT 9999 OVC016 15/11 Q1024 NOSIG
  • 231720Z AUTO 28007KT 0750 R23R/P1500 FG BKN018 15/11 Q1024
  • 231650Z AUTO 30005KT 260V340 9999 FEW018 BKN030 15/11 Q1024 NOSIG

TAF AMD TAF EGCC
Valide du 23 à 18h jusqu'au 25 à 00h UTC


231835Z 2318/2424 30006KT 9999 SCT020
TEMPO 2318/2402 6000 -RADZ BKN008
PROB30
TEMPO 2318/2402 4000 RADZ BKN003
TEMPO 2402/2412 4000 RADZ BKN003
PROB30
TEMPO 2402/2407 0600 FG BKN001
ATIS : +44 161 499 2324



MET'MAP, la Météo Aéronautique d'un coup d'oeil ! - Copyright ORBIFLY Décembre 2007 - Disclaimer

ORBIFLY MET'MAP TEAM :

Programmation & Développement : Alexandra Zaïnal
Sur une idée originale de : Baudouin d'Aumeries
Assistance à la programmation : Marc-Olivier Méhu
Soutien technique & logistique : Manuel Goepfert

Contact : metmap@orbifly.com




SOURCES & CREDITS :

   NOAA